Lake Barrington, Illinois
Current Conditions -  °F | °C
As of 7:52 PM on Sunday 21 Dec 2014 (Local Time) from KPWK Reporting Station
Overcast Overcast  
Wind Chill: 29°   Ceiling: 2200
Heat Index: 36°   Visibility: 8mi
Dew Point: 29°   Wind: 9mph
Humidity: 76%   Direction: 160°SSE
Pressure: 30.07"   Gusts: NA
Location:  42.2651°N, 88.1403°W
Report Text: KPWK 220152Z 16008KT 8SM OVC022 02/M02 A3007 RMK AO2 SLP190 T00221017
Loading
Personal Weather Stations






























Interactive Weather Map New forecast layout! Learn more

10-Day Weather Forecast

Advertisements
Track Severe Weather on mobile